Time;durP1;ratioP1;P1;durP2;ratioP2;P2;SDS_P1;SDS_P2;PMS_P1;PMS_P2;Temp;Humidity;BMP_temperature;BMP_pressure;BME280_temperature;BME280_humidity;BME280_pressure;Samples;Min_cycle;Max_cycle;Signal;HPM_P1;HPM_P2
2022/04/24 00:01:34;;;;;;;5.27;4.27;;;12.70;99.90;;;;;;5002207;28;20460;-70
2022/04/24 00:04:01;;;;;;;7.00;3.90;;;12.60;99.90;;;;;;5002546;28;20440;-71
2022/04/24 00:06:28;;;;;;;4.40;3.47;;;12.60;99.90;;;;;;5001936;28;21028;-70
2022/04/24 00:08:56;;;;;;;7.47;3.47;;;12.50;99.90;;;;;;5005944;28;20440;-71
2022/04/24 00:11:23;;;;;;;7.33;4.70;;;12.60;99.90;;;;;;5004331;28;20516;-71
2022/04/24 00:13:50;;;;;;;3.90;3.60;;;12.50;99.90;;;;;;5012611;28;20436;-71
2022/04/24 00:16:16;;;;;;;3.10;2.80;;;12.50;99.90;;;;;;5004891;28;20520;-71
2022/04/24 00:18:43;;;;;;;5.03;3.73;;;12.50;99.90;;;;;;5007392;28;20465;-72
2022/04/24 00:21:10;;;;;;;4.20;3.53;;;12.50;99.90;;;;;;5004587;28;20478;-71
2022/04/24 00:23:36;;;;;;;3.03;2.70;;;12.40;99.90;;;;;;5003177;28;20439;-71
2022/04/24 00:26:04;;;;;;;4.10;3.53;;;12.50;99.90;;;;;;5007272;28;20428;-71
2022/04/24 00:28:31;;;;;;;4.67;3.40;;;12.30;99.90;;;;;;4993162;28;20489;-72
2022/04/24 00:30:58;;;;;;;4.23;3.07;;;12.30;99.90;;;;;;4999940;28;20522;-70
2022/04/24 00:33:24;;;;;;;5.13;4.10;;;12.20;99.90;;;;;;4999723;28;20510;-72
2022/04/24 00:35:51;;;;;;;3.93;3.20;;;12.10;99.90;;;;;;5003715;28;20478;-71
2022/04/24 00:38:17;;;;;;;5.00;4.20;;;12.00;99.90;;;;;;5006822;28;20511;-71
2022/04/24 00:40:47;;;;;;;7.27;3.77;;;12.10;99.90;;;;;;4997053;28;20477;-71
2022/04/24 00:43:15;;;;;;;3.33;3.03;;;12.10;99.90;;;;;;5003048;28;20485;-72
2022/04/24 00:45:42;;;;;;;4.73;3.20;;;12.00;99.90;;;;;;5001166;28;20439;-71
2022/04/24 00:48:08;;;;;;;5.17;3.33;;;11.90;99.90;;;;;;4998923;28;20520;-71
2022/04/24 00:50:35;;;;;;;3.43;3.13;;;11.80;99.90;;;;;;5001034;28;21240;-71
2022/04/24 00:53:02;;;;;;;9.17;4.00;;;11.80;99.90;;;;;;5009200;28;21001;-72
2022/04/24 00:55:29;;;;;;;4.83;3.70;;;11.70;99.90;;;;;;5000614;28;20461;-72
2022/04/24 00:57:56;;;;;;;3.47;3.17;;;11.60;99.90;;;;;;5002781;28;20799;-71
2022/04/24 01:00:24;;;;;;;5.97;4.67;;;11.60;99.90;;;;;;5000267;28;20487;-71
2022/04/24 01:02:52;;;;;;;3.97;3.57;;;11.50;99.90;;;;;;5001280;28;20446;-71
2022/04/24 01:05:19;;;;;;;6.00;4.40;;;11.60;99.90;;;;;;5000191;28;20433;-71
2022/04/24 01:07:45;;;;;;;5.33;4.10;;;11.50;99.90;;;;;;4999742;28;20486;-72
2022/04/24 01:10:12;;;;;;;5.53;4.63;;;11.40;99.90;;;;;;5001233;28;20539;-72
2022/04/24 01:12:38;;;;;;;3.93;3.60;;;11.50;99.90;;;;;;5005849;28;20481;-71
2022/04/24 01:15:06;;;;;;;5.03;3.20;;;11.40;99.90;;;;;;5006255;28;21140;-71
2022/04/24 01:17:34;;;;;;;4.53;3.40;;;11.50;99.90;;;;;;5000192;28;20461;-72
2022/04/24 01:20:01;;;;;;;6.00;4.33;;;11.40;99.90;;;;;;5006684;28;20484;-71
2022/04/24 01:22:29;;;;;;;5.23;3.90;;;11.30;99.90;;;;;;5006443;28;20428;-70
2022/04/24 01:24:56;;;;;;;4.67;4.00;;;11.30;99.90;;;;;;5005480;28;20447;-71
2022/04/24 01:27:23;;;;;;;5.03;3.60;;;11.20;99.90;;;;;;5001915;28;20492;-71
2022/04/24 01:29:49;;;;;;;5.40;3.80;;;11.30;99.90;;;;;;5003424;28;20536;-71
2022/04/24 01:32:16;;;;;;;5.10;3.83;;;11.20;99.90;;;;;;5007057;28;20525;-70
2022/04/24 01:34:42;;;;;;;5.67;4.20;;;11.30;99.90;;;;;;4997600;28;22414;-71
2022/04/24 01:37:09;;;;;;;4.67;3.70;;;11.20;99.90;;;;;;5001820;28;20441;-70
2022/04/24 01:39:40;;;;;;;3.83;3.53;;;11.10;99.90;;;;;;4996246;28;20482;-70
2022/04/24 01:42:06;;;;;;;5.03;4.27;;;11.10;99.90;;;;;;5000931;28;20502;-70
2022/04/24 01:44:33;;;;;;;4.07;3.30;;;11.10;99.90;;;;;;4998469;28;20468;-70
2022/04/24 01:47:00;;;;;;;5.57;3.63;;;10.90;99.90;;;;;;5008416;28;20435;-71
2022/04/24 01:49:27;;;;;;;5.63;3.50;;;11.00;99.90;;;;;;5000354;28;20919;-70
2022/04/24 01:51:53;;;;;;;5.10;4.30;;;11.10;99.90;;;;;;5004605;28;20683;-70
2022/04/24 01:54:20;;;;;;;4.93;3.37;;;11.10;99.90;;;;;;4996494;28;20812;-70
2022/04/24 01:56:48;;;;;;;4.07;3.20;;;11.10;99.90;;;;;;4992615;28;20866;-70
2022/04/24 01:59:15;;;;;;;4.50;3.53;;;11.00;99.90;;;;;;5004315;28;20895;-70
2022/04/24 02:01:41;;;;;;;10.70;3.50;;;10.90;99.90;;;;;;4994782;28;20496;-70
2022/04/24 02:04:08;;;;;;;5.67;4.37;;;10.90;99.90;;;;;;4998261;28;20476;-70
2022/04/24 02:06:34;;;;;;;5.23;3.13;;;10.80;99.90;;;;;;5003370;28;20454;-70
2022/04/24 02:09:01;;;;;;;5.00;3.63;;;10.70;99.90;;;;;;4999787;28;20452;-70
2022/04/24 02:11:28;;;;;;;5.23;3.63;;;10.70;99.90;;;;;;5019352;22;21002;-74
2022/04/24 02:13:56;;;;;;;4.80;3.87;;;10.80;99.90;;;;;;5020500;28;20485;-75
2022/04/24 02:16:23;;;;;;;18.60;4.60;;;10.70;99.90;;;;;;5021136;28;20925;-75
2022/04/24 02:18:49;;;;;;;4.57;3.63;;;10.70;99.90;;;;;;5019932;28;21132;-74
2022/04/24 02:21:16;;;;;;;12.23;5.13;;;10.60;99.90;;;;;;5019767;28;20476;-74
2022/04/24 02:23:43;;;;;;;5.00;3.70;;;10.60;99.90;;;;;;5023684;28;22140;-74
2022/04/24 02:26:09;;;;;;;6.10;5.50;;;10.50;99.90;;;;;;5021175;28;20432;-74
2022/04/24 02:28:36;;;;;;;3.73;3.03;;;10.50;99.90;;;;;;5023985;28;20434;-74
2022/04/24 02:31:04;;;;;;;5.17;4.10;;;10.50;99.90;;;;;;5024858;28;20818;-74
2022/04/24 02:33:31;;;;;;;9.83;5.53;;;10.40;99.90;;;;;;5021396;28;20474;-75
2022/04/24 02:35:57;;;;;;;7.67;4.53;;;10.30;99.90;;;;;;5020755;28;20868;-74
2022/04/24 02:38:24;;;;;;;3.70;3.30;;;10.30;99.90;;;;;;5019094;28;20438;-72
2022/04/24 02:40:50;;;;;;;5.17;3.80;;;10.30;99.90;;;;;;5017074;28;20458;-75
2022/04/24 02:43:17;;;;;;;8.33;4.67;;;10.30;99.90;;;;;;5024329;28;20982;-74
2022/04/24 02:45:44;;;;;;;4.33;3.93;;;10.20;99.90;;;;;;5022287;28;20514;-74
2022/04/24 02:48:13;;;;;;;4.10;3.70;;;10.20;99.90;;;;;;5013186;28;20437;-74
2022/04/24 02:50:39;;;;;;;5.33;4.40;;;10.10;99.90;;;;;;5019868;28;20461;-74
2022/04/24 02:53:07;;;;;;;6.77;4.40;;;10.10;99.90;;;;;;5017980;28;20455;-74
2022/04/24 02:55:34;;;;;;;4.47;4.03;;;10.00;99.90;;;;;;5018596;28;20442;-74
2022/04/24 02:58:00;;;;;;;5.80;4.47;;;10.10;99.90;;;;;;5017010;28;20443;-74
2022/04/24 03:00:39;;;;;;;6.63;4.33;;;10.00;99.90;;;;;;5023303;28;20436;-74
2022/04/24 03:03:07;;;;;;;7.53;4.30;;;10.00;99.90;;;;;;5019477;28;20424;-74
2022/04/24 03:05:36;;;;;;;6.13;4.57;;;10.00;99.90;;;;;;5025401;28;20438;-73
2022/04/24 03:08:03;;;;;;;4.87;3.87;;;9.90;99.90;;;;;;5021707;28;20527;-74
2022/04/24 03:10:30;;;;;;;6.20;5.60;;;9.90;99.90;;;;;;5027617;28;20438;-73
2022/04/24 03:12:57;;;;;;;7.33;5.40;;;9.80;99.90;;;;;;5025605;28;20563;-74
2022/04/24 03:15:23;;;;;;;7.60;4.87;;;9.90;99.90;;;;;;5021188;28;20441;-74
2022/04/24 03:17:51;;;;;;;7.90;5.87;;;9.90;99.90;;;;;;5019776;28;20443;-74
2022/04/24 03:20:18;;;;;;;8.77;4.43;;;9.80;99.90;;;;;;5026081;28;20431;-74
2022/04/24 03:22:46;;;;;;;5.03;3.47;;;9.80;99.90;;;;;;5012934;28;20459;-76
2022/04/24 03:25:13;;;;;;;6.60;4.63;;;9.80;99.90;;;;;;5019504;28;20471;-74
2022/04/24 03:27:40;;;;;;;7.27;4.93;;;9.80;99.90;;;;;;5023886;28;20899;-74
2022/04/24 03:30:09;;;;;;;8.03;4.77;;;9.90;99.90;;;;;;5020537;28;20438;-73
2022/04/24 03:32:36;;;;;;;7.10;4.97;;;9.90;99.90;;;;;;5016238;28;20457;-72
2022/04/24 03:35:05;;;;;;;4.67;3.40;;;9.80;99.90;;;;;;5024044;28;20429;-74
2022/04/24 03:37:32;;;;;;;5.50;4.20;;;9.70;99.90;;;;;;5024786;28;20435;-74
2022/04/24 03:40:00;;;;;;;7.00;5.23;;;9.60;99.90;;;;;;5013807;28;20436;-74
2022/04/24 03:42:28;;;;;;;8.57;4.57;;;9.60;99.90;;;;;;5014141;28;20481;-74
2022/04/24 03:44:55;;;;;;;5.87;4.43;;;9.60;99.90;;;;;;5017154;28;20443;-74
2022/04/24 03:47:21;;;;;;;6.03;4.07;;;9.50;99.90;;;;;;5021010;28;20447;-74
2022/04/24 03:49:48;;;;;;;6.57;4.50;;;9.50;99.90;;;;;;5021043;28;20597;-74
2022/04/24 03:52:15;;;;;;;9.60;4.97;;;9.50;99.90;;;;;;5029938;28;20461;-74
2022/04/24 03:54:43;;;;;;;8.93;4.63;;;9.50;99.90;;;;;;5027763;28;20450;-74
2022/04/24 03:57:11;;;;;;;7.57;5.57;;;9.40;99.90;;;;;;5020297;28;20493;-75
2022/04/24 03:59:38;;;;;;;6.67;3.70;;;9.30;99.90;;;;;;5018633;28;20795;-74
2022/04/24 04:02:06;;;;;;;4.50;3.70;;;9.30;99.90;;;;;;5024076;28;20451;-74
2022/04/24 04:04:33;;;;;;;7.60;4.70;;;9.30;99.90;;;;;;5025163;28;20501;-74
2022/04/24 04:07:00;;;;;;;7.33;4.90;;;9.30;99.90;;;;;;5023363;28;20507;-74
2022/04/24 04:09:26;;;;;;;6.97;5.10;;;9.30;99.90;;;;;;5016470;28;20506;-73
2022/04/24 04:11:53;;;;;;;5.87;4.47;;;9.40;99.90;;;;;;5017945;28;21041;-74
2022/04/24 04:14:21;;;;;;;5.80;3.60;;;9.30;99.90;;;;;;5018709;28;20481;-74
2022/04/24 04:16:48;;;;;;;6.30;4.43;;;9.30;99.90;;;;;;5018865;28;20449;-74
2022/04/24 04:19:15;;;;;;;6.57;5.00;;;9.20;99.90;;;;;;5018553;28;20499;-72
2022/04/24 04:21:42;;;;;;;8.27;5.07;;;9.20;99.90;;;;;;5014889;28;20456;-74
2022/04/24 04:24:10;;;;;;;6.20;4.80;;;9.20;99.90;;;;;;5019703;28;20938;-73
2022/04/24 04:26:36;;;;;;;4.70;4.23;;;9.20;99.90;;;;;;5023625;28;21105;-74
2022/04/24 04:29:03;;;;;;;6.43;3.63;;;9.20;99.90;;;;;;5017110;28;20435;-73
2022/04/24 04:31:31;;;;;;;3.70;3.37;;;9.20;99.90;;;;;;5020801;28;20454;-74
2022/04/24 04:33:58;;;;;;;5.13;3.17;;;9.20;99.90;;;;;;5028084;28;20496;-74
2022/04/24 04:36:25;;;;;;;4.40;3.60;;;9.10;99.90;;;;;;5024909;28;20479;-74
2022/04/24 04:38:52;;;;;;;5.20;3.40;;;9.00;99.90;;;;;;5017415;28;20864;-73
2022/04/24 04:41:18;;;;;;;5.27;4.77;;;9.00;99.90;;;;;;5017501;28;20448;-72
2022/04/24 04:43:45;;;;;;;5.93;3.70;;;9.00;99.90;;;;;;5021533;28;21144;-72
2022/04/24 04:46:11;;;;;;;4.77;4.10;;;9.00;99.90;;;;;;5024283;28;20461;-74
2022/04/24 04:48:39;;;;;;;5.20;4.00;;;9.00;99.90;;;;;;5027751;28;20455;-74
2022/04/24 04:51:06;;;;;;;5.00;3.53;;;9.00;99.90;;;;;;5024556;28;20480;-74
2022/04/24 04:53:34;;;;;;;3.93;3.53;;;9.10;99.90;;;;;;5027178;28;20993;-74
2022/04/24 04:56:01;;;;;;;4.40;2.97;;;9.10;99.90;;;;;;5024389;28;20472;-74
2022/04/24 04:58:28;;;;;;;3.90;3.50;;;9.10;99.90;;;;;;5019670;28;20415;-73
2022/04/24 05:00:55;;;;;;;5.87;3.20;;;9.10;99.90;;;;;;5023522;28;20490;-74
2022/04/24 05:03:22;;;;;;;5.43;4.07;;;9.20;99.90;;;;;;5016948;28;20817;-74
2022/04/24 05:05:50;;;;;;;3.70;2.93;;;9.20;99.90;;;;;;5018966;28;20994;-71
2022/04/24 05:08:17;;;;;;;3.73;3.03;;;9.20;99.90;;;;;;5023588;28;20428;-74
2022/04/24 05:10:43;;;;;;;5.30;3.10;;;9.30;99.90;;;;;;5024981;28;20462;-72
2022/04/24 05:13:10;;;;;;;3.73;3.43;;;9.50;99.90;;;;;;5023099;28;20514;-74
2022/04/24 05:15:37;;;;;;;3.43;2.50;;;9.80;99.90;;;;;;5026366;28;20427;-75
2022/04/24 05:18:04;;;;;;;3.30;3.00;;;10.00;99.90;;;;;;5019382;28;20504;-74
2022/04/24 05:20:30;;;;;;;6.93;5.00;;;10.10;99.90;;;;;;5026762;28;20495;-72
2022/04/24 05:23:05;;;;;;;3.67;1.93;;;10.20;99.90;;;;;;5022391;28;20440;-75
2022/04/24 05:25:32;;;;;;;3.30;3.00;;;10.30;99.90;;;;;;5026639;28;20811;-74
2022/04/24 05:28:00;;;;;;;3.63;2.63;;;10.40;99.90;;;;;;5022055;28;20439;-74
2022/04/24 05:30:28;;;;;;;6.93;3.57;;;10.50;99.90;;;;;;5026576;28;20443;-74
2022/04/24 05:32:54;;;;;;;3.60;3.10;;;10.50;99.90;;;;;;5020864;28;20544;-74
2022/04/24 05:35:21;;;;;;;3.50;2.53;;;10.70;99.90;;;;;;5023794;28;20518;-74
2022/04/24 05:37:49;;;;;;;4.07;3.70;;;10.70;99.90;;;;;;5018841;28;20526;-74
2022/04/24 05:40:17;;;;;;;5.20;3.10;;;11.00;99.90;;;;;;5016297;28;20450;-73
2022/04/24 05:42:49;;;;;;;4.60;3.37;;;11.00;99.90;;;;;;5026830;28;20512;-75
2022/04/24 05:45:18;;;;;;;5.00;3.60;;;11.40;99.90;;;;;;5021829;28;20553;-74
2022/04/24 05:47:45;;;;;;;4.93;3.80;;;11.30;99.90;;;;;;5023366;28;20461;-74
2022/04/24 05:50:12;;;;;;;6.10;3.00;;;11.30;99.90;;;;;;5024523;28;20436;-74
2022/04/24 05:52:39;;;;;;;4.40;3.03;;;11.40;99.90;;;;;;5023882;28;20455;-74
2022/04/24 05:55:06;;;;;;;7.73;4.87;;;11.60;99.90;;;;;;5022545;28;20541;-75
2022/04/24 05:57:34;;;;;;;3.37;2.50;;;11.90;99.90;;;;;;5026401;28;20452;-74
2022/04/24 06:00:01;;;;;;;5.00;3.47;;;11.90;99.90;;;;;;5028368;28;20872;-74
2022/04/24 06:02:28;;;;;;;5.50;4.00;;;12.20;99.90;;;;;;5019508;28;20485;-75
2022/04/24 06:04:55;;;;;;;4.73;2.80;;;12.60;99.90;;;;;;5022977;28;20495;-75
2022/04/24 06:07:23;;;;;;;4.50;3.50;;;13.00;99.90;;;;;;5027853;28;20543;-74
2022/04/24 06:09:49;;;;;;;3.43;2.30;;;12.80;99.90;;;;;;5022605;28;20475;-74
2022/04/24 06:12:16;;;;;;;5.37;3.63;;;12.60;99.90;;;;;;5022265;28;20590;-75
2022/04/24 06:14:44;;;;;;;3.53;2.80;;;12.80;99.90;;;;;;5024782;28;20855;-75
2022/04/24 06:17:11;;;;;;;6.67;5.10;;;13.30;99.90;;;;;;5023299;28;20539;-74
2022/04/24 06:19:37;;;;;;;9.20;3.30;;;13.20;99.90;;;;;;5019231;28;20469;-75
2022/04/24 06:22:05;;;;;;;4.10;3.50;;;13.50;99.90;;;;;;5025779;28;20550;-75
2022/04/24 06:24:31;;;;;;;5.00;3.37;;;13.60;99.90;;;;;;5020210;28;21012;-74
2022/04/24 06:26:58;;;;;;;6.00;4.20;;;13.80;99.90;;;;;;5021815;28;20514;-75
2022/04/24 06:29:25;;;;;;;4.70;3.30;;;13.80;99.90;;;;;;5019086;28;20457;-73
2022/04/24 06:31:53;;;;;;;6.47;4.10;;;13.90;99.90;;;;;;5016918;28;20464;-75
2022/04/24 06:34:20;;;;;;;3.77;3.30;;;13.80;99.90;;;;;;5026342;28;20612;-74
2022/04/24 06:36:46;;;;;;;4.17;3.20;;;13.50;99.90;;;;;;5029090;28;20469;-74
2022/04/24 06:39:13;;;;;;;5.53;3.63;;;13.70;99.90;;;;;;5016070;28;20975;-75
2022/04/24 06:41:42;;;;;;;5.53;3.73;;;14.00;99.90;;;;;;5022959;28;20477;-76
2022/04/24 06:44:09;;;;;;;2.80;2.50;;;13.90;99.90;;;;;;5020832;28;20826;-75
2022/04/24 06:46:36;;;;;;;2.87;2.20;;;14.10;99.90;;;;;;5019815;28;20519;-73
2022/04/24 06:49:05;;;;;;;3.97;2.90;;;14.00;99.90;;;;;;5025444;28;20496;-76
2022/04/24 06:51:31;;;;;;;5.03;3.90;;;13.90;99.90;;;;;;5021823;28;20531;-75
2022/04/24 06:53:58;;;;;;;10.10;3.97;;;14.20;99.90;;;;;;5022409;28;20458;-74
2022/04/24 06:56:25;;;;;;;3.90;3.50;;;15.00;99.90;;;;;;5030035;28;20453;-74
2022/04/24 06:58:52;;;;;;;4.20;3.30;;;14.80;99.90;;;;;;5017141;28;20534;-75
2022/04/24 07:01:21;;;;;;;3.97;3.43;;;15.00;99.90;;;;;;5012949;28;20564;-75
2022/04/24 07:03:48;;;;;;;5.33;3.77;;;15.10;99.90;;;;;;5015921;28;20457;-73
2022/04/24 07:06:16;;;;;;;3.70;3.30;;;15.40;99.90;;;;;;5028634;28;20464;-73
2022/04/24 07:08:44;;;;;;;2.90;2.60;;;15.70;99.90;;;;;;5021383;28;20470;-74
2022/04/24 07:11:14;;;;;;;4.23;3.50;;;15.80;99.90;;;;;;5016605;28;21441;-73
2022/04/24 07:13:41;;;;;;;5.70;4.30;;;15.60;99.90;;;;;;5024406;28;20485;-74
2022/04/24 07:16:07;;;;;;;7.80;3.27;;;15.40;99.90;;;;;;5024013;28;20496;-74
2022/04/24 07:18:35;;;;;;;5.17;4.67;;;15.50;99.90;;;;;;5023962;28;20460;-74
2022/04/24 07:21:06;;;;;;;3.63;3.10;;;15.30;99.90;;;;;;5025571;28;20480;-74
2022/04/24 07:23:35;;;;;;;4.50;3.70;;;16.10;99.90;;;;;;5023076;28;20458;-75
2022/04/24 07:26:02;;;;;;;4.30;3.93;;;16.10;99.90;;;;;;5022216;28;20867;-75
2022/04/24 07:28:31;;;;;;;4.90;3.60;;;16.00;99.90;;;;;;5021763;28;20513;-74
2022/04/24 07:31:01;;;;;;;3.97;3.57;;;15.80;99.90;;;;;;5013846;28;20576;-74
2022/04/24 07:33:28;;;;;;;4.30;3.80;;;15.80;99.90;;;;;;5017816;28;20469;-74
2022/04/24 07:35:55;;;;;;;7.07;4.23;;;15.90;99.90;;;;;;5019863;28;20459;-75
2022/04/24 07:38:24;;;;;;;4.37;3.57;;;16.40;99.90;;;;;;5019630;28;20544;-74
2022/04/24 07:40:54;;;;;;;6.07;3.87;;;17.10;99.90;;;;;;5022671;28;20505;-75
2022/04/24 07:43:21;;;;;;;5.67;4.40;;;17.20;99.90;;;;;;5022733;28;20480;-75
2022/04/24 07:45:48;;;;;;;3.50;3.20;;;16.70;99.90;;;;;;5025889;28;20453;-75
2022/04/24 07:48:16;;;;;;;5.10;3.37;;;17.00;99.90;;;;;;5016088;28;20547;-76
2022/04/24 07:50:45;;;;;;;4.93;4.03;;;17.00;99.90;;;;;;5026724;28;20458;-76
2022/04/24 07:53:12;;;;;;;6.90;5.67;;;16.90;99.90;;;;;;5013581;28;20469;-74
2022/04/24 07:55:41;;;;;;;6.17;2.90;;;16.80;99.90;;;;;;5011995;28;20489;-74
2022/04/24 07:58:09;;;;;;;4.20;3.07;;;17.20;99.90;;;;;;5017916;28;20480;-75
2022/04/24 08:00:39;;;;;;;4.03;3.37;;;17.00;99.90;;;;;;5008577;28;20454;-75
2022/04/24 08:03:08;;;;;;;3.43;3.10;;;17.70;99.90;;;;;;5013396;28;20465;-76
2022/04/24 08:05:36;;;;;;;4.50;3.13;;;17.70;99.90;;;;;;5021230;28;20488;-75
2022/04/24 08:08:06;;;;;;;4.70;3.93;;;17.50;99.90;;;;;;5012772;28;20443;-74
2022/04/24 08:10:35;;;;;;;6.40;5.33;;;17.70;99.90;;;;;;5026106;28;20856;-76
2022/04/24 08:13:04;;;;;;;3.93;3.63;;;18.20;99.20;;;;;;5040559;22;20502;-67
2022/04/24 08:15:32;;;;;;;11.47;3.90;;;18.20;98.60;;;;;;5021216;28;20534;-67
2022/04/24 08:17:58;;;;;;;6.20;4.70;;;18.50;98.30;;;;;;5023156;28;21256;-68
2022/04/24 08:20:25;;;;;;;6.60;4.60;;;18.80;98.40;;;;;;5022432;28;20850;-68
2022/04/24 08:22:53;;;;;;;3.17;2.87;;;19.80;96.70;;;;;;5024092;28;20490;-68
2022/04/24 08:25:22;;;;;;;6.00;5.40;;;19.10;96.10;;;;;;5031351;28;20551;-68
2022/04/24 08:27:50;;;;;;;5.97;4.70;;;18.50;96.80;;;;;;5029110;28;20826;-69
2022/04/24 08:30:19;;;;;;;9.43;6.27;;;18.40;97.40;;;;;;5020917;28;21044;-69
2022/04/24 08:32:48;;;;;;;5.57;4.70;;;19.00;97.10;;;;;;5025594;28;20486;-69
2022/04/24 08:35:17;;;;;;;5.20;4.67;;;19.10;95.90;;;;;;5023855;28;20489;-67
2022/04/24 08:37:45;;;;;;;7.47;4.90;;;19.30;96.00;;;;;;5031948;28;20492;-68
2022/04/24 08:40:14;;;;;;;7.17;5.10;;;20.50;95.20;;;;;;5023164;28;20463;-68
2022/04/24 08:42:41;;;;;;;5.33;4.83;;;20.90;93.70;;;;;;5023037;28;20641;-70
2022/04/24 08:45:12;;;;;;;8.17;6.17;;;21.20;92.00;;;;;;5017210;28;20454;-69
2022/04/24 08:47:38;;;;;;;11.63;5.70;;;21.10;91.90;;;;;;5024909;28;20492;-69
2022/04/24 08:50:08;;;;;;;9.57;6.30;;;21.80;91.30;;;;;;5025316;28;20437;-68
2022/04/24 08:52:35;;;;;;;7.10;5.50;;;22.30;89.30;;;;;;5028932;28;20559;-69
2022/04/24 08:55:03;;;;;;;3.90;3.20;;;21.30;87.60;;;;;;5020850;28;20805;-69
2022/04/24 08:57:30;;;;;;;4.80;3.90;;;20.70;87.80;;;;;;5029115;28;20465;-68
2022/04/24 08:59:57;;;;;;;6.93;5.00;;;20.30;90.10;;;;;;5022044;28;20472;-69
2022/04/24 09:02:24;;;;;;;6.70;5.10;;;20.30;90.70;;;;;;5016845;28;20482;-69
2022/04/24 09:04:52;;;;;;;7.30;5.60;;;20.60;89.70;;;;;;5024823;28;20465;-69
2022/04/24 09:07:22;;;;;;;17.37;8.07;;;21.00;89.00;;;;;;5023810;28;21017;-69
2022/04/24 09:09:50;;;;;;;9.23;6.97;;;21.50;88.50;;;;;;5021411;28;20522;-69
2022/04/24 09:12:19;;;;;;;6.90;4.50;;;22.00;87.70;;;;;;5020804;28;20485;-69
2022/04/24 09:14:48;;;;;;;6.60;6.00;;;22.90;84.60;;;;;;5015479;28;20485;-69
2022/04/24 09:17:19;;;;;;;6.77;4.97;;;23.10;82.10;;;;;;5026247;28;20453;-69
2022/04/24 09:19:46;;;;;;;5.03;4.00;;;23.00;84.00;;;;;;5022960;28;20564;-68
2022/04/24 09:22:13;;;;;;;5.57;4.73;;;22.20;79.80;;;;;;5023123;28;20478;-69
2022/04/24 09:24:44;;;;;;;6.20;5.57;;;21.10;81.60;;;;;;5023267;28;20458;-68
2022/04/24 09:27:12;;;;;;;8.57;6.37;;;21.50;83.00;;;;;;5025612;28;20462;-69
2022/04/24 09:29:40;;;;;;;6.20;4.10;;;21.80;82.00;;;;;;5017743;28;20519;-68
2022/04/24 09:32:11;;;;;;;4.30;3.90;;;22.10;80.30;;;;;;5026366;28;20477;-69
2022/04/24 09:34:38;;;;;;;6.93;5.47;;;21.00;80.10;;;;;;5027401;28;20513;-69
2022/04/24 09:37:08;;;;;;;7.40;5.67;;;21.60;82.30;;;;;;5020306;28;20459;-69
2022/04/24 09:39:36;;;;;;;12.57;5.77;;;22.20;81.20;;;;;;5018971;28;20523;-69
2022/04/24 09:42:06;;;;;;;7.47;5.93;;;22.60;80.70;;;;;;5024075;28;21061;-68
2022/04/24 09:44:41;;;;;;;5.73;5.10;;;23.00;82.40;;;;;;5021810;28;20513;-69
2022/04/24 09:47:08;;;;;;;6.07;4.70;;;23.30;78.00;;;;;;5019645;28;20462;-69
2022/04/24 09:49:37;;;;;;;6.97;5.53;;;23.90;76.10;;;;;;5020230;28;20823;-68
2022/04/24 09:52:14;;;;;;;10.73;6.53;;;23.70;75.40;;;;;;5019204;28;22490;-69
2022/04/24 09:54:43;;;;;;;6.93;6.23;;;24.00;73.80;;;;;;5016964;28;20489;-69
2022/04/24 09:57:12;;;;;;;6.40;5.73;;;23.70;72.70;;;;;;5019918;28;20457;-68
2022/04/24 09:59:41;;;;;;;6.10;5.50;;;23.90;73.50;;;;;;5023716;28;20516;-68
2022/04/24 10:02:08;;;;;;;6.70;5.80;;;24.00;71.90;;;;;;5009340;28;20482;-68
2022/04/24 10:04:36;;;;;;;10.07;5.53;;;24.20;70.60;;;;;;5022919;28;20515;-68
2022/04/24 10:07:06;;;;;;;6.33;5.73;;;24.50;71.80;;;;;;5022504;28;20970;-69
2022/04/24 10:09:35;;;;;;;6.27;5.67;;;24.80;71.40;;;;;;5025279;28;21214;-69
2022/04/24 10:12:04;;;;;;;5.67;5.03;;;24.50;69.70;;;;;;5022087;28;20494;-69
2022/04/24 10:14:34;;;;;;;5.17;4.50;;;24.90;69.50;;;;;;5023234;28;20465;-69
2022/04/24 10:17:14;;;;;;;3.93;3.43;;;24.80;66.40;;;;;;5023972;28;20519;-69
2022/04/24 10:19:49;;;;;;;7.50;4.93;;;23.30;64.70;;;;;;5023157;28;20581;-69
2022/04/24 10:22:31;;;;;;;2.70;2.07;;;23.00;68.60;;;;;;5026759;28;20478;-68
2022/04/24 10:25:01;;;;;;;7.77;5.67;;;23.60;66.70;;;;;;5025353;28;20454;-68
2022/04/24 10:27:37;;;;;;;7.10;5.00;;;23.30;66.80;;;;;;5028720;28;20478;-69
2022/04/24 10:30:07;;;;;;;7.07;6.27;;;24.10;65.30;;;;;;5019644;28;20829;-69
2022/04/24 10:32:34;;;;;;;6.07;4.70;;;24.60;65.80;;;;;;5022227;28;20591;-68
2022/04/24 10:35:01;;;;;;;7.43;6.50;;;24.60;63.00;;;;;;5023888;28;21067;-69
2022/04/24 10:37:29;;;;;;;7.07;6.20;;;25.10;65.30;;;;;;5025267;28;20488;-69
2022/04/24 10:39:58;;;;;;;6.87;5.83;;;26.40;64.40;;;;;;5014286;28;20461;-69
2022/04/24 10:42:35;;;;;;;4.97;4.10;;;26.00;60.30;;;;;;5023109;28;20510;-68
2022/04/24 10:45:08;;;;;;;7.40;6.07;;;25.90;58.60;;;;;;5022271;28;20532;-68
2022/04/24 10:47:43;;;;;;;6.93;4.40;;;24.50;59.60;;;;;;5011162;28;20469;-69
2022/04/24 10:50:10;;;;;;;11.03;5.07;;;24.80;60.90;;;;;;5032205;28;20460;-68
2022/04/24 10:52:41;;;;;;;6.63;5.77;;;25.40;61.00;;;;;;5026045;28;20503;-69
2022/04/24 10:55:09;;;;;;;6.63;6.00;;;25.60;60.00;;;;;;5027471;28;20873;-69
2022/04/24 10:57:41;;;;;;;11.23;5.53;;;25.60;58.70;;;;;;5016581;28;20516;-69
2022/04/24 11:00:19;;;;;;;7.50;5.60;;;24.50;58.40;;;;;;5023279;28;20544;-69
2022/04/24 11:02:46;;;;;;;7.07;5.80;;;23.70;60.00;;;;;;5017230;28;20492;-68
2022/04/24 11:05:13;;;;;;;6.97;4.97;;;23.50;61.10;;;;;;5015136;28;20882;-68
2022/04/24 11:07:40;;;;;;;7.27;6.57;;;23.30;60.70;;;;;;5026480;28;20454;-70
2022/04/24 11:10:09;;;;;;;11.73;5.67;;;23.50;60.10;;;;;;5021558;28;20501;-69
2022/04/24 11:12:37;;;;;;;5.20;4.70;;;23.80;61.90;;;;;;5024946;28;20484;-69
2022/04/24 11:15:06;;;;;;;6.37;5.77;;;24.10;59.00;;;;;;5019080;28;20541;-70
2022/04/24 11:17:34;;;;;;;7.57;6.03;;;24.10;60.10;;;;;;5024760;28;20467;-69
2022/04/24 11:20:03;;;;;;;6.93;5.57;;;24.20;61.40;;;;;;5020903;28;20457;-70
2022/04/24 11:22:31;;;;;;;5.40;4.40;;;24.70;60.00;;;;;;5023147;28;20474;-69
2022/04/24 11:25:00;;;;;;;7.43;5.80;;;25.20;60.80;;;;;;5025460;28;20602;-70
2022/04/24 11:27:27;;;;;;;8.17;6.70;;;24.80;58.10;;;;;;5020718;28;20516;-70
2022/04/24 11:29:55;;;;;;;6.03;5.40;;;25.00;59.10;;;;;;5020470;28;20472;-69
2022/04/24 11:32:21;;;;;;;6.13;5.33;;;24.80;57.20;;;;;;5023579;28;20841;-70
2022/04/24 11:34:49;;;;;;;7.53;4.53;;;23.60;58.60;;;;;;5025667;28;20467;-68
2022/04/24 11:37:16;;;;;;;8.10;6.20;;;23.80;58.40;;;;;;5018881;28;21083;-69
2022/04/24 11:39:42;;;;;;;6.40;5.10;;;22.60;60.00;;;;;;5019646;28;20477;-69
2022/04/24 11:42:09;;;;;;;4.83;3.97;;;22.10;60.40;;;;;;5023782;28;20540;-68
2022/04/24 11:50:17;;;;;;;10.03;5.13;;;21.80;59.40;;;;;;5023718;28;20458;-69
2022/04/24 11:52:46;;;;;;;7.33;5.83;;;21.20;62.50;;;;;;5024780;28;20485;-68
2022/04/24 11:55:16;;;;;;;6.80;6.10;;;21.30;63.90;;;;;;5014536;28;20483;-70
2022/04/24 11:57:43;;;;;;;11.43;5.00;;;21.60;65.90;;;;;;5016221;28;20467;-68
2022/04/24 12:00:15;;;;;;;6.47;3.83;;;21.60;62.50;;;;;;5010505;28;20462;-68
2022/04/24 12:02:42;;;;;;;4.90;4.27;;;22.90;59.80;;;;;;5018000;28;20548;-68
2022/04/24 12:05:11;;;;;;;5.03;4.33;;;23.20;59.80;;;;;;5026232;28;20802;-69
2022/04/24 12:07:39;;;;;;;7.27;5.10;;;22.90;58.90;;;;;;5020400;28;21022;-69
2022/04/24 12:10:08;;;;;;;6.63;5.90;;;23.70;60.10;;;;;;5021029;28;20471;-67
2022/04/24 12:12:47;;;;;;;5.03;4.40;;;24.80;58.90;;;;;;5024173;28;20487;-69
2022/04/24 12:15:14;;;;;;;3.83;3.40;;;25.40;57.90;;;;;;5025171;28;20484;-69
2022/04/24 12:17:49;;;;;;;6.97;4.90;;;24.20;58.00;;;;;;5021721;28;20539;-72
2022/04/24 12:20:17;;;;;;;4.77;4.00;;;22.70;60.50;;;;;;5020806;28;20477;-72
2022/04/24 12:22:44;;;;;;;3.27;2.97;;;22.70;60.30;;;;;;5023836;28;20484;-69
2022/04/24 12:25:12;;;;;;;6.80;5.17;;;22.50;58.60;;;;;;5022428;28;21289;-69
2022/04/24 12:27:40;;;;;;;6.50;4.70;;;22.70;58.40;;;;;;5018251;28;20473;-69
2022/04/24 12:30:09;;;;;;;6.80;5.30;;;23.10;58.30;;;;;;5015644;28;20463;-68
2022/04/24 12:32:38;;;;;;;3.47;3.17;;;23.50;58.20;;;;;;5030459;28;20545;-70
2022/04/24 12:35:05;;;;;;;5.10;4.27;;;23.30;58.00;;;;;;5012330;28;20470;-68
2022/04/24 12:37:34;;;;;;;7.87;4.40;;;22.20;59.70;;;;;;5012833;28;20816;-69
2022/04/24 12:40:04;;;;;;;7.17;5.47;;;22.00;61.00;;;;;;5014650;28;21037;-69
2022/04/24 12:42:30;;;;;;;4.70;3.43;;;23.10;60.60;;;;;;5024884;28;20475;-68
2022/04/24 12:44:59;;;;;;;4.87;4.33;;;24.00;58.00;;;;;;5020812;28;20461;-68
2022/04/24 12:47:25;;;;;;;5.27;4.77;;;23.40;58.30;;;;;;5019426;28;20492;-68
2022/04/24 12:49:52;;;;;;;7.10;4.97;;;23.80;56.80;;;;;;5025401;28;20468;-69
2022/04/24 12:52:21;;;;;;;6.13;4.43;;;24.00;57.80;;;;;;5017406;28;20474;-69
2022/04/24 12:54:51;;;;;;;5.20;3.90;;;23.90;57.50;;;;;;5027812;28;20489;-69
2022/04/24 12:57:18;;;;;;;3.93;3.20;;;24.40;57.70;;;;;;5014606;28;20542;-69